createdAt,value
2023-03-02T00:00:30.259Z,0.3
2023-03-02T00:02:36.536Z,0.2
2023-03-02T00:04:36.824Z,0.3
2023-03-02T00:06:30.788Z,0.2
2023-03-02T00:08:30.871Z,0.2
2023-03-02T00:10:30.331Z,0.2
2023-03-02T00:12:32.791Z,0.3
2023-03-02T00:14:30.743Z,0.3
2023-03-02T00:16:33.838Z,0.2
2023-03-02T00:18:33.470Z,0.2
2023-03-02T00:20:30.767Z,0.1
2023-03-02T00:22:30.492Z,0.1
2023-03-02T00:24:31.061Z,0.2
2023-03-02T00:26:37.093Z,0.2
2023-03-02T00:28:30.207Z,0.1
2023-03-02T00:30:30.280Z,0.1
2023-03-02T00:32:37.239Z,0.1
2023-03-02T00:34:30.239Z,0.1
2023-03-02T00:36:30.253Z,0
2023-03-02T00:38:36.438Z,0
2023-03-02T00:40:30.715Z,0
2023-03-02T00:44:31.536Z,0.1
2023-03-02T00:46:36.921Z,0.2
2023-03-02T00:50:30.754Z,0
2023-03-02T00:54:30.316Z,-0.1
2023-03-02T00:56:31.048Z,0
2023-03-02T00:58:30.244Z,-0.1
2023-03-02T01:00:30.226Z,-0.2
2023-03-02T01:02:33.183Z,-0.2
2023-03-02T01:04:30.692Z,-0.2
2023-03-02T01:06:34.123Z,-0.2
2023-03-02T01:08:33.528Z,-0.2
2023-03-02T01:10:30.359Z,-0.3
2023-03-02T01:12:31.740Z,-0.4
2023-03-02T01:14:31.551Z,-0.4
2023-03-02T01:16:33.675Z,-0.4
2023-03-02T01:20:30.855Z,-0.5
2023-03-02T01:22:30.302Z,-0.6
2023-03-02T01:24:35.765Z,-0.5
2023-03-02T01:26:31.055Z,-0.5
2023-03-02T01:28:30.755Z,-0.5
2023-03-02T01:32:31.621Z,-0.6
2023-03-02T01:34:30.315Z,-0.5
2023-03-02T01:36:31.819Z,-0.6
2023-03-02T01:38:34.918Z,-0.6
2023-03-02T01:40:30.338Z,-0.7
2023-03-02T01:42:36.926Z,-0.7
2023-03-02T01:44:40.647Z,-0.7
2023-03-02T01:46:33.820Z,-0.6
2023-03-02T01:48:43.562Z,-0.6
2023-03-02T01:50:31.237Z,-0.5
2023-03-02T01:52:30.806Z,-0.6
2023-03-02T01:54:35.823Z,-0.6
2023-03-02T01:56:39.967Z,-0.5
2023-03-02T01:58:35.016Z,-0.6
2023-03-02T02:00:30.604Z,-0.7
2023-03-02T02:02:33.809Z,-0.7
2023-03-02T02:04:30.246Z,-0.7
2023-03-02T02:06:30.768Z,-0.7
2023-03-02T02:08:31.059Z,-0.7
2023-03-02T02:10:35.776Z,-0.7
2023-03-02T02:14:33.647Z,-0.6
2023-03-02T02:16:33.959Z,-0.7
2023-03-02T02:18:43.150Z,-0.7
2023-03-02T02:20:30.704Z,-0.7
2023-03-02T02:22:44.163Z,-0.7
2023-03-02T02:24:35.082Z,-0.7
2023-03-02T02:26:31.248Z,-0.8
2023-03-02T02:28:30.386Z,-0.7
2023-03-02T02:30:35.109Z,-0.7
2023-03-02T02:32:30.754Z,-0.7
2023-03-02T02:34:36.443Z,-0.7
2023-03-02T02:36:43.273Z,-0.7
2023-03-02T02:38:30.757Z,-0.6
2023-03-02T02:40:30.602Z,-0.6
2023-03-02T02:42:31.543Z,-0.5
2023-03-02T02:44:44.230Z,-0.6
2023-03-02T02:46:31.916Z,-0.6
2023-03-02T02:48:30.840Z,-0.7
2023-03-02T02:50:33.517Z,-0.7
2023-03-02T02:52:30.234Z,-0.7
2023-03-02T02:54:30.251Z,-0.7
2023-03-02T02:56:31.100Z,-0.8
2023-03-02T02:58:30.888Z,-0.8
2023-03-02T03:00:30.419Z,-0.8
2023-03-02T03:02:30.806Z,-0.8
2023-03-02T03:04:30.734Z,-0.6
2023-03-02T03:06:32.419Z,-0.7
2023-03-02T03:08:36.330Z,-0.7
2023-03-02T03:10:40.383Z,-0.7
2023-03-02T03:12:30.732Z,-0.7
2023-03-02T03:14:30.782Z,-0.6
2023-03-02T03:18:33.924Z,-0.6
2023-03-02T03:20:30.966Z,-0.7
2023-03-02T03:22:30.649Z,-0.6
2023-03-02T03:24:33.488Z,-0.6
2023-03-02T03:26:34.148Z,-0.6
2023-03-02T03:28:32.155Z,-0.7
2023-03-02T03:30:33.494Z,-0.7
2023-03-02T03:32:33.519Z,-0.7
2023-03-02T03:34:30.373Z,-0.7
2023-03-02T03:38:33.902Z,-0.8
2023-03-02T03:40:30.277Z,-0.8
2023-03-02T03:42:35.210Z,-0.7
2023-03-02T03:44:30.727Z,-0.6
2023-03-02T03:46:30.531Z,-0.7
2023-03-02T03:50:30.868Z,-0.8
2023-03-02T03:52:30.239Z,-0.8
2023-03-02T03:54:30.993Z,-0.7
2023-03-02T03:56:31.929Z,-0.6
2023-03-02T03:58:33.320Z,-0.7
2023-03-02T04:00:30.355Z,-0.7
2023-03-02T04:02:33.495Z,-0.7
2023-03-02T04:04:30.261Z,-0.7
2023-03-02T04:06:30.505Z,-0.7
2023-03-02T04:08:33.536Z,-0.7
2023-03-02T04:10:33.862Z,-0.7
2023-03-02T04:12:33.509Z,-0.7
2023-03-02T04:14:30.713Z,-0.7
2023-03-02T04:16:30.643Z,-0.7
2023-03-02T04:18:30.618Z,-0.7
2023-03-02T04:20:33.526Z,-0.7
2023-03-02T04:22:35.141Z,-0.8
2023-03-02T04:24:33.498Z,-0.8
2023-03-02T04:26:31.862Z,-0.8
2023-03-02T04:28:33.562Z,-0.8
2023-03-02T04:30:30.618Z,-0.7
2023-03-02T04:32:33.634Z,-0.5
2023-03-02T04:34:30.512Z,-0.6
2023-03-02T04:38:30.975Z,-0.6
2023-03-02T04:40:30.757Z,-0.7
2023-03-02T04:42:30.786Z,-0.7
2023-03-02T04:44:33.589Z,-0.7
2023-03-02T04:46:31.410Z,-0.7
2023-03-02T04:48:30.871Z,-0.7
2023-03-02T04:50:31.641Z,-0.8
2023-03-02T04:52:30.307Z,-0.8
2023-03-02T04:54:33.588Z,-0.8
2023-03-02T04:56:33.307Z,-0.8
2023-03-02T04:58:30.451Z,-0.8
2023-03-02T05:00:36.254Z,-0.8
2023-03-02T05:02:30.767Z,-0.8
2023-03-02T05:04:30.423Z,-0.8
2023-03-02T05:06:33.456Z,-0.9
2023-03-02T05:08:30.779Z,-0.8
2023-03-02T05:10:30.743Z,-0.9
2023-03-02T05:12:33.448Z,-1
2023-03-02T05:14:30.856Z,-1
2023-03-02T05:16:30.412Z,-1.1
2023-03-02T05:18:30.250Z,-1
2023-03-02T05:20:31.245Z,-1.1
2023-03-02T05:22:30.355Z,-0.9
2023-03-02T05:24:30.657Z,-1
2023-03-02T05:26:33.834Z,-1
2023-03-02T05:28:37.310Z,-0.9
2023-03-02T05:30:31.588Z,-1
2023-03-02T05:32:33.713Z,-1
2023-03-02T05:34:30.253Z,-1
2023-03-02T05:36:30.623Z,-1
2023-03-02T05:38:30.765Z,-1
2023-03-02T05:40:30.621Z,-1.1
2023-03-02T05:44:33.574Z,-1
2023-03-02T05:48:30.333Z,-1.1
2023-03-02T05:50:33.231Z,-1
2023-03-02T05:52:30.419Z,-1
2023-03-02T05:54:30.360Z,-1
2023-03-02T05:56:31.610Z,-1
2023-03-02T05:58:30.372Z,-1.1
2023-03-02T06:02:31.227Z,-1.1
2023-03-02T06:04:30.413Z,-1.1
2023-03-02T06:06:33.900Z,-1
2023-03-02T06:08:33.076Z,-1
2023-03-02T06:10:30.793Z,-1
2023-03-02T06:12:30.375Z,-1.1
2023-03-02T06:14:31.072Z,-1.1
2023-03-02T06:16:30.564Z,-1
2023-03-02T06:18:33.199Z,-0.9
2023-03-02T06:20:36.084Z,-0.9
2023-03-02T06:22:30.282Z,-0.9
2023-03-02T06:24:30.352Z,-0.8
2023-03-02T06:26:31.956Z,-0.8
2023-03-02T06:28:30.543Z,-0.9
2023-03-02T06:30:33.275Z,-0.8
2023-03-02T06:32:33.176Z,-0.7
2023-03-02T06:36:41.283Z,-0.6
2023-03-02T06:38:31.238Z,-0.5
2023-03-02T06:40:30.372Z,-0.4
2023-03-02T06:42:30.677Z,-0.4
2023-03-02T06:44:30.960Z,-0.3
2023-03-02T06:46:30.643Z,-0.2
2023-03-02T06:48:33.680Z,-0.2
2023-03-02T06:50:33.129Z,-0.1
2023-03-02T06:52:30.782Z,0
2023-03-02T06:56:31.590Z,0.1
2023-03-02T06:58:31.714Z,0.2
2023-03-02T07:00:31.719Z,0.2
2023-03-02T07:02:30.827Z,0.3
2023-03-02T07:04:33.611Z,0.4
2023-03-02T07:06:30.405Z,0.4
2023-03-02T07:08:30.810Z,0.5
2023-03-02T07:10:33.856Z,0.6
2023-03-02T07:12:33.637Z,0.6
2023-03-02T07:14:33.538Z,0.7
2023-03-02T07:16:30.347Z,0.7
2023-03-02T07:18:33.071Z,0.9
2023-03-02T07:20:32.129Z,0.9
2023-03-02T07:22:31.018Z,1
2023-03-02T07:24:30.787Z,1
2023-03-02T07:28:30.369Z,1.1
2023-03-02T07:30:30.390Z,1.1
2023-03-02T07:32:30.951Z,1.4
2023-03-02T07:34:30.396Z,1.4
2023-03-02T07:40:30.358Z,4.3
2023-03-02T07:42:30.404Z,4.2
2023-03-02T07:44:31.589Z,4.2
2023-03-02T07:46:30.441Z,4.3
2023-03-02T07:48:30.647Z,4.4
2023-03-02T07:50:33.128Z,4.5
2023-03-02T07:52:30.374Z,4.7
2023-03-02T07:54:30.280Z,4.6
2023-03-02T07:56:33.751Z,4.6
2023-03-02T07:58:30.331Z,4.7
2023-03-02T08:00:31.067Z,4.8
2023-03-02T08:02:31.000Z,4.8
2023-03-02T08:04:31.766Z,4.8
2023-03-02T08:08:31.703Z,4.8
2023-03-02T08:10:30.778Z,5
2023-03-02T08:12:40.795Z,5
2023-03-02T08:14:30.781Z,4.8
2023-03-02T08:16:40.482Z,4.8
2023-03-02T08:18:30.332Z,5
2023-03-02T08:20:30.866Z,5
2023-03-02T08:22:30.396Z,5.1
2023-03-02T08:24:31.679Z,5.2
2023-03-02T08:26:33.686Z,5.2
2023-03-02T08:28:30.766Z,5.2
2023-03-02T08:30:30.297Z,5.3
2023-03-02T08:34:30.423Z,4.9
2023-03-02T08:36:30.444Z,5.1
2023-03-02T08:38:33.570Z,5.2
2023-03-02T08:40:40.581Z,5.1
2023-03-02T08:42:30.362Z,5.2
2023-03-02T08:44:32.916Z,5.4
2023-03-02T08:46:30.306Z,5.5
2023-03-02T08:50:30.952Z,5.7
2023-03-02T08:52:30.419Z,5.7
2023-03-02T08:54:31.761Z,5.7
2023-03-02T08:56:31.553Z,5.7
2023-03-02T08:58:30.383Z,5.7
2023-03-02T09:00:31.674Z,5.8
2023-03-02T09:02:30.805Z,5.9
2023-03-02T09:04:32.574Z,5.9
2023-03-02T09:06:30.348Z,5.3
2023-03-02T09:08:30.856Z,5.4
2023-03-02T09:10:30.316Z,5.7
2023-03-02T09:12:30.303Z,5.7
2023-03-02T09:14:33.771Z,5.7
2023-03-02T09:18:30.415Z,5.9
2023-03-02T09:20:30.820Z,6
2023-03-02T09:22:31.202Z,6
2023-03-02T09:24:31.751Z,6.1
2023-03-02T09:26:30.795Z,6.1
2023-03-02T09:28:30.788Z,6.1
2023-03-02T09:32:31.060Z,6.2
2023-03-02T09:36:34.949Z,6.2
2023-03-02T09:38:31.306Z,6.2
2023-03-02T09:40:30.326Z,6.2
2023-03-02T09:42:41.972Z,6.3
2023-03-02T09:44:30.881Z,6.5
2023-03-02T09:46:30.482Z,6.5
2023-03-02T09:50:30.825Z,6.5
2023-03-02T09:54:31.003Z,6.4
2023-03-02T09:56:32.019Z,6.5
2023-03-02T09:58:30.742Z,6.4
2023-03-02T10:00:33.254Z,6.4
2023-03-02T10:02:31.649Z,6.5
2023-03-02T10:06:33.525Z,6.8
2023-03-02T10:08:30.899Z,6.8
2023-03-02T10:10:32.153Z,6.8
2023-03-02T10:12:30.850Z,6.8
2023-03-02T10:14:31.364Z,6.9
2023-03-02T10:16:33.874Z,6.9
2023-03-02T10:18:31.652Z,7
2023-03-02T10:20:34.040Z,7
2023-03-02T10:22:30.616Z,7
2023-03-02T10:24:33.589Z,7
2023-03-02T10:26:31.180Z,7
2023-03-02T10:28:30.422Z,7
2023-03-02T10:30:30.903Z,7.1
2023-03-02T10:32:31.421Z,7.1
2023-03-02T10:34:30.361Z,7.1
2023-03-02T10:36:30.393Z,7.1
2023-03-02T10:38:30.988Z,7.1
2023-03-02T10:40:30.527Z,7.1
2023-03-02T10:42:30.780Z,7.1
2023-03-02T10:44:46.438Z,7.1
2023-03-02T10:46:31.580Z,7.2
2023-03-02T10:48:31.711Z,7.2
2023-03-02T10:50:33.662Z,7.2
2023-03-02T10:52:30.410Z,7.2
2023-03-02T10:54:30.349Z,7.2
2023-03-02T10:56:35.147Z,7.3
2023-03-02T10:58:30.358Z,7.3
2023-03-02T11:00:30.723Z,7.4
2023-03-02T11:02:30.885Z,7.3
2023-03-02T11:04:32.121Z,7.3
2023-03-02T11:06:35.048Z,7.4
2023-03-02T11:08:30.890Z,7.4
2023-03-02T11:10:30.516Z,7.4
2023-03-02T11:12:30.503Z,7.5
2023-03-02T11:14:31.171Z,7.5
2023-03-02T11:16:32.610Z,7.5
2023-03-02T11:20:32.249Z,7.5
2023-03-02T11:22:30.372Z,7.5
2023-03-02T11:24:30.464Z,7.6
2023-03-02T11:26:33.937Z,7.6
2023-03-02T11:28:30.895Z,7.6
2023-03-02T11:30:30.436Z,7.5
2023-03-02T11:32:31.126Z,7.5
2023-03-02T11:36:33.642Z,7.7
2023-03-02T11:40:31.136Z,7.8
2023-03-02T11:42:31.837Z,7.8
2023-03-02T11:44:31.258Z,7.9
2023-03-02T11:46:30.609Z,7.9
2023-03-02T11:48:31.695Z,7.8
2023-03-02T11:50:30.997Z,7.8
2023-03-02T11:52:30.637Z,7.9
2023-03-02T11:54:37.331Z,8
2023-03-02T11:56:31.641Z,8.1
2023-03-02T11:58:30.401Z,8.1
2023-03-02T12:00:33.441Z,8.1
2023-03-02T12:02:30.943Z,8.1
2023-03-02T12:04:30.395Z,8.2
2023-03-02T12:06:33.565Z,8.2
2023-03-02T12:08:30.945Z,8.2
2023-03-02T12:10:33.720Z,8.2
2023-03-02T12:12:33.237Z,8.2
2023-03-02T12:14:32.348Z,8.3
2023-03-02T12:16:33.538Z,8.4
2023-03-02T12:18:30.468Z,8.5
2023-03-02T12:22:30.563Z,8.5
2023-03-02T12:24:33.556Z,8.5
2023-03-02T12:26:32.058Z,8.5
2023-03-02T12:28:30.470Z,8.5
2023-03-02T12:30:30.529Z,8.5
2023-03-02T12:32:30.981Z,8.6
2023-03-02T12:34:33.599Z,8.6
2023-03-02T12:36:30.616Z,8.5
2023-03-02T12:38:33.329Z,8.5
2023-03-02T12:40:30.962Z,8.5
2023-03-02T12:42:31.756Z,8.6
2023-03-02T12:44:32.278Z,8.6
2023-03-02T12:46:31.040Z,8.6
2023-03-02T12:48:33.748Z,8.7
2023-03-02T12:50:31.129Z,8.7
2023-03-02T12:52:30.483Z,8.6
2023-03-02T12:54:31.230Z,8.7
2023-03-02T12:56:31.780Z,8.7
2023-03-02T12:58:33.332Z,8.7
2023-03-02T13:00:30.858Z,8.7
2023-03-02T13:02:31.368Z,8.7
2023-03-02T13:04:30.473Z,8.7
2023-03-02T13:06:34.046Z,8.8
2023-03-02T13:08:31.428Z,8.8
2023-03-02T13:10:30.822Z,8.8
2023-03-02T13:14:33.734Z,8.8
2023-03-02T13:16:33.989Z,8.8
2023-03-02T13:18:33.692Z,8.8
2023-03-02T13:20:35.251Z,8.8
2023-03-02T13:22:41.374Z,8.9
2023-03-02T13:24:33.740Z,8.9
2023-03-02T13:26:37.264Z,8.9
2023-03-02T13:28:30.503Z,9.1
2023-03-02T13:30:33.861Z,9
2023-03-02T13:32:30.990Z,9.1
2023-03-02T13:34:37.131Z,9.1
2023-03-02T13:36:32.697Z,9.1
2023-03-02T13:38:33.629Z,9.4
2023-03-02T13:42:30.560Z,9.4
2023-03-02T13:44:33.662Z,9.4
2023-03-02T13:46:34.138Z,9.4
2023-03-02T13:48:33.657Z,9.3
2023-03-02T13:50:31.012Z,9.2
2023-03-02T13:52:32.288Z,9.1
2023-03-02T13:54:30.574Z,9.1
2023-03-02T13:56:34.085Z,9.1
2023-03-02T13:58:30.538Z,9.2
2023-03-02T14:00:33.361Z,9.3
2023-03-02T14:02:31.019Z,9.4
2023-03-02T14:04:30.614Z,9.4
2023-03-02T14:06:30.683Z,9.3
2023-03-02T14:08:30.958Z,9.2
2023-03-02T14:10:33.636Z,9.1
2023-03-02T14:12:33.747Z,9
2023-03-02T14:14:31.088Z,9
2023-03-02T14:16:30.782Z,8.9
2023-03-02T14:18:30.537Z,8.8
2023-03-02T14:20:31.725Z,8.7
2023-03-02T14:22:30.964Z,8.7
2023-03-02T14:24:30.898Z,8.8
2023-03-02T14:28:30.454Z,8.8
2023-03-02T14:30:30.492Z,8.8
2023-03-02T14:34:30.440Z,9
2023-03-02T14:36:31.851Z,9
2023-03-02T14:38:30.964Z,9.1
2023-03-02T14:40:30.606Z,9
2023-03-02T14:42:30.465Z,9
2023-03-02T14:44:30.955Z,9
2023-03-02T14:46:30.584Z,9
2023-03-02T14:48:30.626Z,9
2023-03-02T14:52:30.594Z,9
2023-03-02T14:54:31.735Z,9
2023-03-02T14:56:33.607Z,9
2023-03-02T14:58:30.504Z,9
2023-03-02T15:00:30.501Z,9
2023-03-02T15:02:31.021Z,8.9
2023-03-02T15:04:33.431Z,8.9
2023-03-02T15:06:30.724Z,8.9
2023-03-02T15:08:31.392Z,8.8
2023-03-02T15:10:30.949Z,8.8
2023-03-02T15:12:30.520Z,8.8
2023-03-02T15:14:33.300Z,8.8
2023-03-02T15:16:30.522Z,8.9
2023-03-02T15:18:33.738Z,8.9
2023-03-02T15:20:31.081Z,8.9
2023-03-02T15:22:30.575Z,8.9
2023-03-02T15:24:33.455Z,8.9
2023-03-02T15:26:33.654Z,8.9
2023-03-02T15:28:30.513Z,8.9
2023-03-02T15:32:33.790Z,8.9
2023-03-02T15:34:31.854Z,8.9
2023-03-02T15:36:33.839Z,8.9
2023-03-02T15:38:31.045Z,8.9
2023-03-02T15:42:32.177Z,8.8
2023-03-02T15:44:33.688Z,8.7
2023-03-02T15:46:33.787Z,8.7
2023-03-02T15:48:33.753Z,8.6
2023-03-02T15:52:31.225Z,8.6
2023-03-02T15:56:38.940Z,8.5
2023-03-02T15:58:33.465Z,8.5
2023-03-02T16:00:30.540Z,8.5
2023-03-02T16:02:31.505Z,8.5
2023-03-02T16:06:33.767Z,8.5
2023-03-02T16:08:33.727Z,8.5
2023-03-02T16:10:30.917Z,8.5
2023-03-02T16:12:31.720Z,8.5
2023-03-02T16:14:36.926Z,8.5
2023-03-02T16:18:30.622Z,8.5
2023-03-02T16:20:33.755Z,8.5
2023-03-02T16:22:33.812Z,8.5
2023-03-02T16:24:31.752Z,8.5
2023-03-02T16:26:33.733Z,8.5
2023-03-02T16:28:31.008Z,8.5
2023-03-02T16:30:30.586Z,8.5
2023-03-02T16:32:33.715Z,8.5
2023-03-02T16:34:30.558Z,8.5
2023-03-02T16:36:33.735Z,8.5
2023-03-02T16:38:33.728Z,8.5
2023-03-02T16:40:31.086Z,8.5
2023-03-02T16:42:30.623Z,8.5
2023-03-02T16:44:33.702Z,8.5
2023-03-02T16:46:31.104Z,8.5
2023-03-02T16:48:30.557Z,8.5
2023-03-02T16:50:33.662Z,8.5
2023-03-02T16:52:30.827Z,8.5
2023-03-02T16:54:33.382Z,8.5
2023-03-02T16:56:31.040Z,8.5
2023-03-02T16:58:30.919Z,8.5
2023-03-02T17:00:31.017Z,8.5
2023-03-02T17:02:45.383Z,8.5
2023-03-02T17:04:30.597Z,8.4
2023-03-02T17:10:26.519Z,8.3
2023-03-02T17:12:28.265Z,8.2
2023-03-02T17:14:29.878Z,8.2
2023-03-02T17:16:23.316Z,8.2
2023-03-02T17:18:25.485Z,7.9
2023-03-02T17:22:25.420Z,7.9
2023-03-02T17:24:23.286Z,7.6
2023-03-02T17:26:29.468Z,7.6
2023-03-02T17:28:26.043Z,7.6
2023-03-02T17:30:27.686Z,7.7
2023-03-02T17:32:30.025Z,7.4
2023-03-02T17:34:23.291Z,7.6
2023-03-02T17:36:23.291Z,7.6
2023-03-02T17:40:23.384Z,7.4
2023-03-02T17:42:23.674Z,7.3
2023-03-02T17:44:29.824Z,7.2
2023-03-02T17:46:23.360Z,7.2
2023-03-02T17:48:25.289Z,7.2
2023-03-02T17:50:29.768Z,7.2
2023-03-02T17:52:23.309Z,7.2
2023-03-02T17:54:25.471Z,7
2023-03-02T17:58:28.534Z,7
2023-03-02T18:00:23.291Z,6.9
2023-03-02T18:04:29.714Z,6.6
2023-03-02T18:06:25.096Z,6.4
2023-03-02T18:08:30.025Z,6.4
2023-03-02T18:10:26.465Z,6.4
2023-03-02T18:12:24.753Z,6.4
2023-03-02T18:16:23.410Z,6.2
2023-03-02T18:18:23.665Z,6
2023-03-02T18:20:27.422Z,6
2023-03-02T18:22:28.317Z,6
2023-03-02T18:24:23.297Z,6
2023-03-02T18:26:29.874Z,5.8
2023-03-02T18:28:23.302Z,5.7
2023-03-02T18:30:25.511Z,5.7
2023-03-02T18:34:28.261Z,5.6
2023-03-02T18:36:26.877Z,5.5
2023-03-02T18:42:29.581Z,4.9
2023-03-02T18:44:24.520Z,5
2023-03-02T18:46:29.155Z,4.8
2023-03-02T18:48:29.774Z,4.7
2023-03-02T18:50:23.293Z,4.7
2023-03-02T18:52:29.634Z,4.6
2023-03-02T18:54:25.001Z,4.4
2023-03-02T18:56:25.513Z,4.3
2023-03-02T18:58:31.947Z,4.1
2023-03-02T19:02:25.534Z,4.1
2023-03-02T19:08:29.186Z,3.7
2023-03-02T19:12:30.060Z,3.6
2023-03-02T19:14:23.312Z,3.6
2023-03-02T19:18:25.393Z,3.5
2023-03-02T19:20:30.520Z,3.4
2023-03-02T19:22:23.404Z,3.4
2023-03-02T19:26:23.495Z,3.3
2023-03-02T19:28:29.887Z,3.2
2023-03-02T19:32:29.592Z,3.1
2023-03-02T19:36:29.898Z,3
2023-03-02T19:38:25.409Z,2.9
2023-03-02T19:40:29.362Z,2.9
2023-03-02T19:42:29.583Z,2.9
2023-03-02T19:44:28.974Z,2.9
2023-03-02T19:46:25.655Z,2.9
2023-03-02T19:48:29.113Z,2.8
2023-03-02T19:50:25.524Z,2.8
2023-03-02T19:56:24.503Z,2.6
2023-03-02T19:58:27.304Z,2.5
2023-03-02T20:00:29.671Z,2.5
2023-03-02T20:02:23.383Z,2.3
2023-03-02T20:08:23.365Z,2.5
2023-03-02T20:12:29.737Z,2.4
2023-03-02T20:14:33.274Z,2.3
2023-03-02T20:16:29.386Z,2.3
2023-03-02T20:20:26.561Z,2.2
2023-03-02T20:26:29.828Z,2.1
2023-03-02T20:28:26.722Z,2.2
2023-03-02T20:30:29.121Z,2
2023-03-02T20:32:30.072Z,2.1
2023-03-02T20:34:26.980Z,2.1
2023-03-02T20:36:23.342Z,2
2023-03-02T20:40:23.249Z,1.9
2023-03-02T20:42:23.387Z,1.9
2023-03-02T20:44:29.786Z,1.9
2023-03-02T20:46:26.620Z,1.9
2023-03-02T20:48:25.584Z,1.9
2023-03-02T20:52:23.677Z,1.8
2023-03-02T20:54:23.756Z,1.8
2023-03-02T20:56:30.099Z,1.8
2023-03-02T20:58:25.542Z,1.7
2023-03-02T21:00:29.926Z,1.7
2023-03-02T21:08:24.129Z,1.5
2023-03-02T21:10:26.648Z,1.6
2023-03-02T21:16:27.073Z,1.5
2023-03-02T21:18:23.360Z,1.5
2023-03-02T21:20:29.981Z,1.4
2023-03-02T21:22:26.928Z,1.5
2023-03-02T21:24:29.221Z,1.5
2023-03-02T21:26:29.815Z,1.5
2023-03-02T21:28:25.574Z,1.4
2023-03-02T21:30:23.350Z,1.4
2023-03-02T21:34:25.822Z,1.4
2023-03-02T21:36:27.404Z,1.3
2023-03-02T21:40:27.794Z,1.3
2023-03-02T21:42:29.171Z,1.3
2023-03-02T21:44:30.065Z,1.1
2023-03-02T21:46:26.641Z,1.1
2023-03-02T21:48:23.328Z,1.2
2023-03-02T21:52:27.606Z,1.1
2023-03-02T21:54:26.914Z,1
2023-03-02T21:58:23.322Z,1.1
2023-03-02T22:00:26.452Z,1.1
2023-03-02T22:02:30.426Z,1.1
2023-03-02T22:04:23.747Z,1.1
2023-03-02T22:06:30.155Z,1
2023-03-02T22:10:23.337Z,1
2023-03-02T22:12:23.335Z,0.9
2023-03-02T22:14:30.045Z,0.8
2023-03-02T22:16:23.316Z,0.8
2023-03-02T22:18:25.462Z,0.7
2023-03-02T22:20:29.950Z,0.9
2023-03-02T22:22:23.610Z,0.8
2023-03-02T22:24:30.248Z,0.8
2023-03-02T22:30:26.485Z,0.8
2023-03-02T22:32:25.521Z,0.7
2023-03-02T22:34:29.594Z,0.7
2023-03-02T22:36:28.044Z,0.7
2023-03-02T22:38:30.028Z,0.7
2023-03-02T22:40:26.838Z,0.7
2023-03-02T22:42:23.371Z,0.8
2023-03-02T22:44:29.817Z,0.7
2023-03-02T22:48:23.385Z,0.6
2023-03-02T22:50:28.810Z,0.6
2023-03-02T22:54:23.329Z,0.4
2023-03-02T22:56:29.612Z,0.5
2023-03-02T22:58:29.437Z,0.4
2023-03-02T23:00:23.390Z,0.5
2023-03-02T23:04:29.539Z,0.4
2023-03-02T23:06:29.800Z,0.5
2023-03-02T23:08:29.663Z,0.4
2023-03-02T23:10:26.139Z,0.5
2023-03-02T23:12:27.240Z,0.4
2023-03-02T23:16:29.166Z,0.3
2023-03-02T23:18:26.579Z,0.4
2023-03-02T23:20:28.595Z,0.5
2023-03-02T23:22:28.439Z,0.4
2023-03-02T23:24:25.736Z,0.4
2023-03-02T23:26:29.628Z,0.1
2023-03-02T23:28:29.683Z,0
2023-03-02T23:30:32.750Z,0
2023-03-02T23:36:20.367Z,0
2023-03-02T23:37:54.746Z,0.1
2023-03-02T23:41:55.783Z,0.2
2023-03-02T23:43:54.396Z,0.1
2023-03-02T23:45:55.712Z,0.2
2023-03-02T23:47:55.452Z,0.1
2023-03-02T23:49:55.687Z,0.2
2023-03-02T23:53:51.572Z,0.1
2023-03-02T23:55:55.798Z,-0.1
2023-03-02T23:57:54.772Z,0
2023-03-02T23:59:55.613Z,0
